Hauptseite
METAR-TAF:

METAR-TAF

Flughäfen :

York Airport

York, Pennsylvania, Vereinigte Staaten

Breite: 39-55-10N, Länge: 076-52-37W, Höhe: 146 m

Beobachtung

Neuester Wetterbericht von vor 47 Minuten, um 16:16 UTC
Wind 6 kt aus Nordwest
Temperatur 26°C
Luftfeuchtigkeit 61%
Luftdruck 1007 hPa
Sichtweite: 16.1 km
Leicht bewölkt in der Höhe von 5000 ft
Aufgelockert bewölkt in der Höhe von 8000 ft

METAR: KTHV 031616Z AUTO 31006KT 10SM FEW050 SCT080 26/18 A2974 RMK AO2 LTG DSNT E RAE07 P0000 T02610178

Zeit: 13:03 (17:03 UTC)


TAF: fehlend

Wetterbeobachtungen und Prognosen von mehr als 4000 Flughäfen (METAR und TAF Bericht).

Die verfügbaren Stationen werden durch gelbe und rote Markierungen auf der Karte dargestellt.

Führen Sie die Maus auf sie, um den Namen der Station zu sehen.

Darauf klicken, um die Beobachtung von Wetterbeobachtungen und Prognosen zu sehen.

Um die Karte zu ändern : klicken Sie auf den grünen Tasten mit einem schwarzen Kreuz Zum Vergrößern, auf den grünen Button mit einem Gedankenstrich zu verkleinern, oder auf die grünen Pfeile für benachbarte Karten.


METAR-TAF: